createdAt,value
2023-01-17T00:01:15.909Z,3.00
2023-01-17T00:04:07.410Z,3.10
2023-01-17T00:06:58.625Z,3.10
2023-01-17T00:09:49.840Z,3.00
2023-01-17T00:12:27.931Z,3.10
2023-01-17T00:15:01.298Z,3.10
2023-01-17T00:17:34.034Z,3.10
2023-01-17T00:20:25.717Z,3.10
2023-01-17T00:23:17.371Z,3.10
2023-01-17T00:26:05.109Z,3.10
2023-01-17T00:28:39.779Z,3.10
2023-01-17T00:31:14.803Z,3.00
2023-01-17T00:33:47.966Z,3.00
2023-01-17T00:36:20.630Z,3.10
2023-01-17T00:38:53.362Z,3.00
2023-01-17T00:41:28.743Z,3.00
2023-01-17T00:44:20.014Z,3.00
2023-01-17T00:47:11.221Z,3.00
2023-01-17T00:50:02.523Z,3.00
2023-01-17T00:52:53.642Z,3.00
2023-01-17T00:55:44.949Z,3.00
2023-01-17T00:58:36.146Z,3.00
2023-01-17T01:01:27.348Z,3.00
2023-01-17T01:04:18.983Z,3.00
2023-01-17T01:07:10.106Z,3.00
2023-01-17T01:10:01.260Z,3.00
2023-01-17T01:12:52.542Z,3.00
2023-01-17T01:15:43.705Z,3.00
2023-01-17T01:18:34.876Z,2.90
2023-01-17T01:21:25.986Z,2.90
2023-01-17T01:24:17.146Z,2.90
2023-01-17T01:27:08.335Z,2.90
2023-01-17T01:29:59.472Z,2.90
2023-01-17T01:32:54.986Z,2.90
2023-01-17T01:35:27.886Z,2.90
2023-01-17T01:38:02.927Z,2.90
2023-01-17T01:40:41.055Z,2.90
2023-01-17T01:43:15.512Z,2.90
2023-01-17T01:45:57.818Z,2.90
2023-01-17T01:48:35.243Z,2.90
2023-01-17T01:51:12.206Z,2.90
2023-01-17T01:53:49.434Z,2.90
2023-01-17T01:56:23.405Z,2.90
2023-01-17T01:58:58.041Z,2.80
2023-01-17T02:01:31.658Z,2.80
2023-01-17T02:04:09.667Z,2.80
2023-01-17T02:06:50.096Z,2.80
2023-01-17T02:09:23.505Z,2.80
2023-01-17T02:11:56.179Z,2.80
2023-01-17T02:14:28.891Z,2.80
2023-01-17T02:17:28.421Z,2.80
2023-01-17T02:20:12.828Z,2.80
2023-01-17T02:23:25.261Z,2.80
2023-01-17T02:26:18.916Z,2.80
2023-01-17T02:29:12.044Z,2.80
2023-01-17T02:31:56.003Z,2.80
2023-01-17T02:34:46.820Z,2.80
2023-01-17T02:37:28.335Z,2.80
2023-01-17T02:40:29.553Z,2.90
2023-01-17T02:43:08.129Z,2.90
2023-01-17T02:45:41.100Z,2.90
2023-01-17T02:48:16.555Z,2.90
2023-01-17T02:51:10.752Z,2.90
2023-01-17T02:53:55.115Z,2.90
2023-01-17T02:56:55.103Z,2.90
2023-01-17T02:59:27.698Z,2.90
2023-01-17T03:02:23.485Z,2.90
2023-01-17T03:05:08.912Z,2.90
2023-01-17T03:07:44.149Z,2.90
2023-01-17T03:10:19.030Z,2.90
2023-01-17T03:13:00.103Z,2.90
2023-01-17T03:15:33.004Z,2.90
2023-01-17T03:18:10.762Z,2.90
2023-01-17T03:20:43.530Z,2.90
2023-01-17T03:23:16.216Z,2.90
2023-01-17T03:25:48.885Z,2.90
2023-01-17T03:28:21.514Z,2.90
2023-01-17T03:30:54.428Z,2.80
2023-01-17T03:33:27.142Z,2.80
2023-01-17T03:35:59.943Z,2.80
2023-01-17T03:38:32.646Z,2.80
2023-01-17T03:41:05.555Z,2.80
2023-01-17T03:43:38.602Z,2.80
2023-01-17T03:46:25.683Z,2.80
2023-01-17T03:48:58.377Z,2.80
2023-01-17T03:51:31.157Z,2.80
2023-01-17T03:54:04.132Z,2.80
2023-01-17T03:56:36.859Z,2.80
2023-01-17T03:59:13.049Z,2.80
2023-01-17T04:01:46.164Z,2.80
2023-01-17T04:04:18.879Z,2.80
2023-01-17T04:06:51.601Z,2.80
2023-01-17T04:09:24.244Z,2.80
2023-01-17T04:11:56.959Z,2.80
2023-01-17T04:14:29.625Z,2.80
2023-01-17T04:17:04.001Z,2.80
2023-01-17T04:19:36.879Z,2.80
2023-01-17T04:22:09.662Z,2.80
2023-01-17T04:24:42.361Z,2.80
2023-01-17T04:27:16.067Z,2.80
2023-01-17T04:29:48.749Z,2.80
2023-01-17T04:32:21.411Z,2.80
2023-01-17T04:34:54.095Z,2.80
2023-01-17T04:37:26.987Z,2.90
2023-01-17T04:39:59.725Z,2.90
2023-01-17T04:42:32.637Z,2.90
2023-01-17T04:45:06.420Z,2.90
2023-01-17T04:47:39.626Z,2.90
2023-01-17T04:50:12.710Z,3.00
2023-01-17T04:52:45.464Z,3.00
2023-01-17T04:55:18.228Z,2.90
2023-01-17T04:57:50.953Z,3.00
2023-01-17T05:00:24.333Z,3.00
2023-01-17T05:02:57.238Z,3.00
2023-01-17T05:05:31.169Z,3.00
2023-01-17T05:08:04.012Z,3.00
2023-01-17T05:10:36.690Z,3.00
2023-01-17T05:13:09.509Z,3.10
2023-01-17T05:15:42.219Z,3.00
2023-01-17T05:18:16.721Z,3.00
2023-01-17T05:20:49.397Z,3.00
2023-01-17T05:23:22.382Z,3.00
2023-01-17T05:25:55.122Z,3.00
2023-01-17T05:28:27.857Z,2.90
2023-01-17T05:31:00.660Z,2.90
2023-01-17T05:33:33.573Z,2.90
2023-01-17T05:36:06.769Z,2.80
2023-01-17T05:38:39.443Z,2.80
2023-01-17T05:41:12.078Z,2.70
2023-01-17T05:43:46.338Z,2.70
2023-01-17T05:46:19.189Z,2.70
2023-01-17T05:48:51.955Z,2.60
2023-01-17T05:51:24.642Z,2.60
2023-01-17T05:53:57.358Z,2.60
2023-01-17T05:56:30.152Z,2.60
2023-01-17T05:59:02.831Z,2.60
2023-01-17T06:01:35.477Z,2.60
2023-01-17T06:04:08.273Z,2.60
2023-01-17T06:06:40.926Z,2.70
2023-01-17T06:09:13.746Z,2.70
2023-01-17T06:11:46.430Z,2.80
2023-01-17T06:14:19.239Z,2.80
2023-01-17T06:16:52.074Z,2.80
2023-01-17T06:19:24.770Z,2.90
2023-01-17T06:21:57.481Z,2.90
2023-01-17T06:24:30.477Z,2.90
2023-01-17T06:27:03.169Z,2.90
2023-01-17T06:29:36.002Z,2.90
2023-01-17T06:32:08.792Z,2.90
2023-01-17T06:34:41.848Z,2.90
2023-01-17T06:37:14.603Z,2.90
2023-01-17T06:39:47.425Z,2.90
2023-01-17T06:42:20.351Z,3.00
2023-01-17T06:44:53.004Z,2.90
2023-01-17T06:47:25.663Z,3.00
2023-01-17T06:49:58.350Z,3.00
2023-01-17T06:52:31.041Z,3.00
2023-01-17T06:55:04.179Z,3.00
2023-01-17T06:57:36.827Z,3.00
2023-01-17T07:00:11.527Z,2.90
2023-01-17T07:02:47.816Z,2.90
2023-01-17T07:05:20.917Z,2.80
2023-01-17T07:07:54.198Z,2.80
2023-01-17T07:10:26.839Z,2.80
2023-01-17T07:13:00.582Z,2.80
2023-01-17T07:15:33.273Z,2.80
2023-01-17T07:18:06.994Z,2.80
2023-01-17T07:20:39.724Z,2.80
2023-01-17T07:23:12.911Z,2.90
2023-01-17T07:25:52.261Z,2.90
2023-01-17T07:28:26.909Z,2.90
2023-01-17T07:31:03.973Z,2.90
2023-01-17T07:33:36.749Z,2.90
2023-01-17T07:36:10.306Z,2.90
2023-01-17T07:38:44.790Z,2.80
2023-01-17T07:41:17.541Z,2.80
2023-01-17T07:43:50.247Z,2.80
2023-01-17T07:46:23.261Z,2.80
2023-01-17T07:48:56.098Z,2.80
2023-01-17T07:51:28.984Z,2.80
2023-01-17T07:54:01.852Z,2.80
2023-01-17T07:56:34.895Z,2.80
2023-01-17T07:59:07.610Z,2.80
2023-01-17T08:01:40.349Z,2.80
2023-01-17T08:04:14.000Z,2.70
2023-01-17T08:06:48.698Z,2.70
2023-01-17T08:09:21.691Z,2.70
2023-01-17T08:11:54.384Z,2.70
2023-01-17T08:14:27.106Z,2.70
2023-01-17T08:17:07.528Z,2.70
2023-01-17T08:19:40.522Z,2.80
2023-01-17T08:22:13.175Z,2.80
2023-01-17T08:24:45.943Z,2.90
2023-01-17T08:27:18.572Z,2.90
2023-01-17T08:29:52.032Z,3.00
2023-01-17T08:32:24.858Z,3.00
2023-01-17T08:34:57.715Z,2.90
2023-01-17T08:37:30.415Z,2.80
2023-01-17T08:40:04.068Z,2.80
2023-01-17T08:42:40.061Z,2.70
2023-01-17T08:45:14.700Z,2.70
2023-01-17T08:47:47.423Z,2.70
2023-01-17T08:50:20.698Z,2.70
2023-01-17T08:53:00.836Z,2.60
2023-01-17T08:55:37.893Z,2.60
2023-01-17T08:58:10.567Z,2.60
2023-01-17T09:00:43.378Z,2.60
2023-01-17T09:03:18.474Z,2.50
2023-01-17T09:06:00.354Z,2.40
2023-01-17T09:08:33.669Z,2.30
2023-01-17T09:13:54.503Z,2.30
2023-01-17T09:16:27.658Z,2.30
2023-01-17T09:19:00.735Z,2.30
2023-01-17T09:21:33.487Z,2.30
2023-01-17T09:24:06.484Z,2.30
2023-01-17T09:26:39.496Z,2.30
2023-01-17T09:29:13.996Z,2.40
2023-01-17T09:31:48.124Z,2.40
2023-01-17T09:34:21.300Z,2.40
2023-01-17T09:36:54.252Z,2.50
2023-01-17T09:39:27.063Z,2.40
2023-01-17T09:42:16.415Z,2.40
2023-01-17T09:44:53.517Z,2.40
2023-01-17T09:47:46.418Z,2.40
2023-01-17T09:50:34.452Z,2.50
2023-01-17T09:53:14.530Z,2.50
2023-01-17T09:55:53.395Z,2.60
2023-01-17T09:58:29.233Z,2.70
2023-01-17T10:01:12.259Z,2.70
2023-01-17T10:03:50.030Z,2.70
2023-01-17T10:06:45.496Z,2.70
2023-01-17T10:09:27.204Z,2.70
2023-01-17T10:12:21.171Z,2.70
2023-01-17T10:14:56.584Z,2.70
2023-01-17T10:17:32.384Z,2.70
2023-01-17T10:20:16.925Z,2.70
2023-01-17T10:23:25.093Z,2.70
2023-01-17T10:26:05.508Z,2.70
2023-01-17T10:28:49.529Z,2.70
2023-01-17T10:31:27.942Z,2.70
2023-01-17T10:34:21.852Z,2.80
2023-01-17T10:37:01.832Z,2.80
2023-01-17T10:39:35.395Z,2.80
2023-01-17T10:42:22.371Z,2.90
2023-01-17T10:45:15.095Z,2.90
2023-01-17T10:47:59.939Z,3.00
2023-01-17T10:50:49.852Z,3.00
2023-01-17T10:53:53.347Z,3.10
2023-01-17T10:56:28.502Z,3.10
2023-01-17T10:59:15.764Z,3.20
2023-01-17T11:01:50.979Z,3.30
2023-01-17T11:04:32.272Z,3.40
2023-01-17T11:07:22.915Z,3.40
2023-01-17T11:09:57.483Z,3.40
2023-01-17T11:12:34.909Z,3.40
2023-01-17T11:15:10.711Z,3.50
2023-01-17T11:17:48.956Z,3.50
2023-01-17T11:20:34.652Z,3.50
2023-01-17T11:23:17.566Z,3.60
2023-01-17T11:25:58.101Z,3.60
2023-01-17T11:28:33.462Z,3.60
2023-01-17T11:31:22.392Z,3.70
2023-01-17T11:34:15.351Z,3.80
2023-01-17T11:36:49.848Z,3.80
2023-01-17T11:39:27.377Z,3.80
2023-01-17T11:42:00.047Z,3.80
2023-01-17T11:44:34.597Z,3.80
2023-01-17T11:47:13.004Z,3.90
2023-01-17T11:49:49.883Z,3.90
2023-01-17T11:52:33.520Z,4.00
2023-01-17T11:55:06.380Z,3.90
2023-01-17T11:57:39.165Z,3.90
2023-01-17T12:00:24.447Z,3.90
2023-01-17T12:03:16.089Z,3.90
2023-01-17T12:06:03.561Z,3.80
2023-01-17T12:08:54.880Z,3.80
2023-01-17T12:12:08.907Z,3.80
2023-01-17T12:15:02.707Z,3.80
2023-01-17T12:17:47.395Z,3.80
2023-01-17T12:20:32.744Z,3.80
2023-01-17T12:23:45.350Z,3.80
2023-01-17T12:26:27.523Z,3.80
2023-01-17T12:29:32.499Z,3.70
2023-01-17T12:32:23.338Z,3.70
2023-01-17T12:35:13.131Z,3.70
2023-01-17T12:38:03.780Z,3.70
2023-01-17T12:41:03.116Z,3.70
2023-01-17T12:43:43.445Z,3.60
2023-01-17T12:46:27.023Z,3.60
2023-01-17T12:49:23.738Z,3.60
2023-01-17T12:52:04.848Z,3.60
2023-01-17T12:54:45.127Z,3.60
2023-01-17T12:57:23.225Z,3.60
2023-01-17T13:00:06.595Z,3.70
2023-01-17T13:03:16.210Z,3.70
2023-01-17T13:05:51.181Z,3.70
2023-01-17T13:08:35.906Z,3.80
2023-01-17T13:11:28.483Z,3.80
2023-01-17T13:14:02.324Z,3.70
2023-01-17T13:16:42.225Z,3.70
2023-01-17T13:19:24.764Z,3.80
2023-01-17T13:22:00.648Z,3.80
2023-01-17T13:24:41.060Z,3.80
2023-01-17T13:27:49.136Z,3.90
2023-01-17T13:30:36.839Z,3.80
2023-01-17T13:33:34.642Z,3.80
2023-01-17T13:36:21.367Z,3.90
2023-01-17T13:39:15.761Z,4.00
2023-01-17T13:41:54.692Z,4.10
2023-01-17T13:44:29.923Z,4.10
2023-01-17T13:47:27.497Z,4.10
2023-01-17T13:50:00.257Z,4.00
2023-01-17T13:52:33.656Z,4.00
2023-01-17T13:55:07.078Z,4.00
2023-01-17T13:57:41.937Z,4.00
2023-01-17T14:00:21.351Z,3.90
2023-01-17T14:02:55.529Z,3.90
2023-01-17T14:05:32.159Z,3.80
2023-01-17T14:08:19.602Z,3.80
2023-01-17T14:11:03.652Z,3.80
2023-01-17T14:13:38.738Z,3.80
2023-01-17T14:16:28.913Z,3.80
2023-01-17T14:19:01.700Z,3.80
2023-01-17T14:21:35.611Z,3.80
2023-01-17T14:24:12.933Z,3.70
2023-01-17T14:26:46.660Z,3.70
2023-01-17T14:29:45.859Z,3.70
2023-01-17T14:32:31.343Z,3.70
2023-01-17T14:35:23.036Z,3.70
2023-01-17T14:38:03.048Z,3.70
2023-01-17T14:40:38.348Z,3.70
2023-01-17T14:43:13.736Z,3.60
2023-01-17T14:45:46.727Z,3.70
2023-01-17T14:48:22.362Z,3.60
2023-01-17T14:50:59.834Z,3.70
2023-01-17T14:53:33.812Z,3.60
2023-01-17T14:56:14.756Z,3.60
2023-01-17T14:58:47.487Z,3.60
2023-01-17T15:01:20.734Z,3.60
2023-01-17T15:03:54.995Z,3.60
2023-01-17T15:06:38.688Z,3.60
2023-01-17T15:09:17.056Z,3.50
2023-01-17T15:11:52.044Z,3.50
2023-01-17T15:14:28.963Z,3.50
2023-01-17T15:17:24.660Z,3.50
2023-01-17T15:20:01.564Z,3.50
2023-01-17T15:22:35.072Z,3.40
2023-01-17T15:25:11.171Z,3.40
2023-01-17T15:27:44.137Z,3.40
2023-01-17T15:30:17.721Z,3.40
2023-01-17T15:32:51.326Z,3.40
2023-01-17T15:35:24.995Z,3.40
2023-01-17T15:37:58.252Z,3.30
2023-01-17T15:40:33.142Z,3.30
2023-01-17T15:43:06.499Z,3.30
2023-01-17T15:45:39.559Z,3.20
2023-01-17T15:48:44.249Z,3.20
2023-01-17T15:51:30.925Z,3.20
2023-01-17T15:54:28.659Z,3.10
2023-01-17T15:57:18.959Z,3.10
2023-01-17T16:00:01.328Z,3.10
2023-01-17T16:02:34.574Z,3.10
2023-01-17T16:05:27.501Z,3.00
2023-01-17T16:08:03.243Z,3.00
2023-01-17T16:10:37.875Z,3.00
2023-01-17T16:13:13.538Z,3.00
2023-01-17T16:15:46.339Z,2.90
2023-01-17T16:18:23.912Z,2.90
2023-01-17T16:21:01.041Z,2.90
2023-01-17T16:23:33.833Z,2.90
2023-01-17T16:26:06.475Z,2.90
2023-01-17T16:28:39.253Z,2.90
2023-01-17T16:31:12.283Z,2.80
2023-01-17T16:33:45.974Z,2.80
2023-01-17T16:36:20.672Z,2.80
2023-01-17T16:38:53.664Z,2.80
2023-01-17T16:41:26.388Z,2.80
2023-01-17T16:44:01.867Z,2.70
2023-01-17T16:46:38.338Z,2.70
2023-01-17T16:49:11.285Z,2.70
2023-01-17T16:51:46.300Z,2.70
2023-01-17T16:54:19.284Z,2.70
2023-01-17T16:56:52.103Z,2.60
2023-01-17T16:59:25.406Z,2.60
2023-01-17T17:02:01.310Z,2.60
2023-01-17T17:04:34.392Z,2.60
2023-01-17T17:07:07.337Z,2.60
2023-01-17T17:09:40.128Z,2.60
2023-01-17T17:12:12.866Z,2.50
2023-01-17T17:14:45.573Z,2.60
2023-01-17T17:17:18.401Z,2.50
2023-01-17T17:19:55.144Z,2.50
2023-01-17T17:22:28.019Z,2.60
2023-01-17T17:25:00.955Z,2.60
2023-01-17T17:27:33.695Z,2.60
2023-01-17T17:30:07.201Z,2.50
2023-01-17T17:32:39.931Z,2.50
2023-01-17T17:35:12.758Z,2.50
2023-01-17T17:37:45.399Z,2.50
2023-01-17T17:40:18.319Z,2.40
2023-01-17T17:42:54.627Z,2.40
2023-01-17T17:45:27.567Z,2.40
2023-01-17T17:48:00.242Z,2.40
2023-01-17T17:50:33.071Z,2.40
2023-01-17T17:53:05.903Z,2.40
2023-01-17T17:55:40.037Z,2.40
2023-01-17T17:58:12.760Z,2.40
2023-01-17T18:00:45.589Z,2.40
2023-01-17T18:03:18.284Z,2.40
2023-01-17T18:05:51.917Z,2.40
2023-01-17T18:08:24.941Z,2.40
2023-01-17T18:10:59.689Z,2.40
2023-01-17T18:13:33.191Z,2.40
2023-01-17T18:16:12.477Z,2.50
2023-01-17T18:18:48.352Z,2.40
2023-01-17T18:21:25.873Z,2.40
2023-01-17T18:24:05.059Z,2.40
2023-01-17T18:26:43.820Z,2.50
2023-01-17T18:29:18.443Z,2.50
2023-01-17T18:31:52.292Z,2.50
2023-01-17T18:34:28.968Z,2.50
2023-01-17T18:37:01.767Z,2.50
2023-01-17T18:39:34.532Z,2.50
2023-01-17T18:42:07.615Z,2.50
2023-01-17T18:44:40.526Z,2.60
2023-01-17T18:47:13.410Z,2.60
2023-01-17T18:49:46.186Z,2.50
2023-01-17T18:52:19.513Z,2.60
2023-01-17T18:54:52.237Z,2.60
2023-01-17T18:57:25.242Z,2.60
2023-01-17T18:59:58.045Z,2.60
2023-01-17T19:02:31.842Z,2.60
2023-01-17T19:05:08.286Z,2.60
2023-01-17T19:07:41.163Z,2.60
2023-01-17T19:10:15.026Z,2.60
2023-01-17T19:12:48.037Z,2.60
2023-01-17T19:15:22.739Z,2.60
2023-01-17T19:17:55.828Z,2.50
2023-01-17T19:20:29.560Z,2.50
2023-01-17T19:23:02.361Z,2.40
2023-01-17T19:25:35.636Z,2.40
2023-01-17T19:28:09.771Z,2.40
2023-01-17T19:30:42.511Z,2.30
2023-01-17T19:33:15.602Z,2.30
2023-01-17T19:35:48.284Z,2.20
2023-01-17T19:38:21.060Z,2.20
2023-01-17T19:40:53.783Z,2.20
2023-01-17T19:43:26.584Z,2.20
2023-01-17T19:45:59.819Z,2.10
2023-01-17T19:48:32.657Z,2.10
2023-01-17T19:51:10.743Z,2.10
2023-01-17T19:53:43.814Z,2.10
2023-01-17T19:56:20.613Z,2.00
2023-01-17T19:58:54.375Z,2.00
2023-01-17T20:01:30.499Z,2.00
2023-01-17T20:04:06.641Z,2.00
2023-01-17T20:06:41.978Z,2.00
2023-01-17T20:09:14.785Z,2.00
2023-01-17T20:11:49.663Z,1.90
2023-01-17T20:14:22.636Z,1.90
2023-01-17T20:16:55.311Z,1.90
2023-01-17T20:19:28.047Z,1.90
2023-01-17T20:24:58.311Z,1.90
2023-01-17T20:27:31.186Z,1.90
2023-01-17T20:30:19.190Z,1.80
2023-01-17T20:32:53.052Z,1.80
2023-01-17T20:35:28.465Z,1.80
2023-01-17T20:38:01.261Z,1.80
2023-01-17T20:40:34.113Z,1.80
2023-01-17T20:43:09.031Z,1.70
2023-01-17T20:45:41.948Z,1.70
2023-01-17T20:48:14.819Z,1.60
2023-01-17T20:50:47.894Z,1.60
2023-01-17T20:53:21.871Z,1.60
2023-01-17T20:55:57.656Z,1.60
2023-01-17T20:58:31.208Z,1.60
2023-01-17T21:01:05.049Z,1.60
2023-01-17T21:03:38.965Z,1.60
2023-01-17T21:06:13.675Z,1.60
2023-01-17T21:08:50.275Z,1.60
2023-01-17T21:11:25.707Z,1.60
2023-01-17T21:13:58.415Z,1.70
2023-01-17T21:16:32.444Z,1.60
2023-01-17T21:19:05.693Z,1.70
2023-01-17T21:21:38.410Z,1.60
2023-01-17T21:24:18.685Z,1.60
2023-01-17T21:26:52.346Z,1.60
2023-01-17T21:29:28.908Z,1.60
2023-01-17T21:32:01.631Z,1.60
2023-01-17T21:34:34.660Z,1.60
2023-01-17T21:37:07.347Z,1.60
2023-01-17T21:39:39.989Z,1.60
2023-01-17T21:42:13.303Z,1.50
2023-01-17T21:44:46.119Z,1.60
2023-01-17T21:47:18.851Z,1.50
2023-01-17T21:49:51.506Z,1.50
2023-01-17T21:52:24.167Z,1.50
2023-01-17T21:55:15.506Z,1.50
2023-01-17T21:58:06.846Z,1.50
2023-01-17T22:00:42.981Z,1.50
2023-01-17T22:03:15.644Z,1.50
2023-01-17T22:05:48.348Z,1.50
2023-01-17T22:08:21.006Z,1.50
2023-01-17T22:10:53.668Z,1.60
2023-01-17T22:13:32.227Z,1.60
2023-01-17T22:16:07.542Z,1.60
2023-01-17T22:18:42.227Z,1.60
2023-01-17T22:21:19.344Z,1.60
2023-01-17T22:23:56.304Z,1.60
2023-01-17T22:26:32.085Z,1.60
2023-01-17T22:29:05.176Z,1.60
2023-01-17T22:31:37.881Z,1.60
2023-01-17T22:34:10.901Z,1.60
2023-01-17T22:36:43.649Z,1.60
2023-01-17T22:39:16.318Z,1.70
2023-01-17T22:41:49.237Z,1.60
2023-01-17T22:44:22.146Z,1.60
2023-01-17T22:46:55.408Z,1.60
2023-01-17T22:49:28.133Z,1.60
2023-01-17T22:52:00.791Z,1.60
2023-01-17T22:54:33.492Z,1.60
2023-01-17T22:57:06.161Z,1.60
2023-01-17T22:59:38.865Z,1.60
2023-01-17T23:02:11.524Z,1.60
2023-01-17T23:04:45.084Z,1.60
2023-01-17T23:07:17.817Z,1.50
2023-01-17T23:09:50.511Z,1.40
2023-01-17T23:12:23.160Z,1.40
2023-01-17T23:15:14.649Z,1.40
2023-01-17T23:18:05.767Z,1.30
2023-01-17T23:20:38.481Z,1.30
2023-01-17T23:23:11.154Z,1.30
2023-01-17T23:25:43.835Z,1.20
2023-01-17T23:28:20.794Z,1.20
2023-01-17T23:30:53.512Z,1.10
2023-01-17T23:33:26.430Z,1.00
2023-01-17T23:35:59.129Z,1.00
2023-01-17T23:38:37.403Z,1.00
2023-01-17T23:41:28.524Z,1.00
2023-01-17T23:44:01.152Z,0.90
2023-01-17T23:46:33.838Z,0.80
2023-01-17T23:49:06.478Z,0.80
2023-01-17T23:51:39.206Z,0.80
2023-01-17T23:54:11.879Z,0.70
2023-01-17T23:56:44.877Z,0.70
2023-01-17T23:59:17.603Z,0.70
